createdAt,value
2024-01-09T00:00:25.754Z,2.73
2024-01-09T00:02:54.007Z,3.80
2024-01-09T00:05:23.719Z,3.57
2024-01-09T00:07:51.994Z,3.70
2024-01-09T00:10:20.197Z,3.20
2024-01-09T00:12:48.414Z,3.93
2024-01-09T00:15:16.770Z,4.33
2024-01-09T00:17:45.086Z,3.80
2024-01-09T00:20:13.894Z,4.07
2024-01-09T00:22:43.544Z,3.50
2024-01-09T00:25:11.779Z,3.70
2024-01-09T00:27:40.055Z,3.13
2024-01-09T00:30:08.933Z,3.27
2024-01-09T00:32:37.284Z,3.83
2024-01-09T00:35:05.843Z,3.47
2024-01-09T00:37:34.118Z,3.60
2024-01-09T00:40:04.068Z,3.60
2024-01-09T00:42:32.248Z,3.37
2024-01-09T00:45:02.050Z,3.60
2024-01-09T00:47:31.195Z,3.10
2024-01-09T00:49:59.550Z,3.43
2024-01-09T00:52:27.731Z,3.50
2024-01-09T00:54:55.953Z,3.43
2024-01-09T00:57:25.509Z,3.67
2024-01-09T00:59:53.764Z,3.10
2024-01-09T01:02:22.346Z,3.40
2024-01-09T01:04:50.675Z,3.90
2024-01-09T01:07:18.910Z,3.00
2024-01-09T01:09:47.109Z,3.30
2024-01-09T01:12:15.295Z,3.57
2024-01-09T01:14:44.995Z,3.30
2024-01-09T01:17:13.299Z,3.47
2024-01-09T01:19:41.633Z,3.63
2024-01-09T01:22:09.899Z,3.30
2024-01-09T01:24:38.097Z,3.57
2024-01-09T01:27:06.665Z,3.53
2024-01-09T01:29:34.927Z,3.87
2024-01-09T01:32:10.245Z,3.73
2024-01-09T01:34:38.660Z,3.20
2024-01-09T01:37:07.146Z,3.10
2024-01-09T01:39:37.325Z,2.90
2024-01-09T01:42:06.036Z,3.73
2024-01-09T01:44:34.450Z,3.33
2024-01-09T01:47:02.902Z,3.70
2024-01-09T01:49:32.577Z,3.90
2024-01-09T01:52:01.307Z,3.57
2024-01-09T01:54:30.057Z,3.37
2024-01-09T01:56:59.038Z,3.43
2024-01-09T01:59:27.270Z,3.50
2024-01-09T02:01:55.713Z,3.60
2024-01-09T02:04:24.036Z,3.43
2024-01-09T02:06:53.928Z,3.07
2024-01-09T02:09:22.147Z,3.60
2024-01-09T02:11:50.969Z,3.60
2024-01-09T02:14:19.428Z,3.50
2024-01-09T02:16:47.848Z,3.43
2024-01-09T02:19:16.083Z,3.60
2024-01-09T02:21:44.578Z,2.87
2024-01-09T02:24:14.246Z,3.00
2024-01-09T02:26:56.969Z,3.70
2024-01-09T02:29:35.519Z,3.50
2024-01-09T02:32:05.766Z,3.30
2024-01-09T02:34:35.136Z,3.30
2024-01-09T02:37:03.659Z,3.40
2024-01-09T02:39:32.220Z,3.33
2024-01-09T02:42:00.562Z,3.50
2024-01-09T02:44:28.891Z,2.63
2024-01-09T02:46:57.169Z,3.30
2024-01-09T02:49:26.769Z,3.73
2024-01-09T02:51:55.029Z,3.10
2024-01-09T02:54:23.364Z,3.40
2024-01-09T02:56:51.787Z,3.17
2024-01-09T02:59:20.127Z,3.60
2024-01-09T03:01:48.349Z,3.30
2024-01-09T03:04:16.528Z,3.30
2024-01-09T03:06:46.253Z,3.60
2024-01-09T03:09:14.577Z,3.50
2024-01-09T03:11:42.807Z,3.30
2024-01-09T03:14:11.151Z,3.57
2024-01-09T03:16:39.482Z,3.10
2024-01-09T03:19:09.021Z,3.43
2024-01-09T03:21:37.397Z,3.20
2024-01-09T03:24:07.476Z,3.17
2024-01-09T03:26:35.781Z,3.30
2024-01-09T03:29:05.546Z,3.07
2024-01-09T03:31:34.716Z,3.17
2024-01-09T03:34:03.739Z,3.20
2024-01-09T03:36:33.040Z,3.33
2024-01-09T03:39:01.380Z,3.47
2024-01-09T03:41:30.998Z,3.40
2024-01-09T03:43:59.252Z,3.37
2024-01-09T03:46:27.490Z,3.03
2024-01-09T03:48:55.792Z,3.23
2024-01-09T03:51:24.029Z,3.13
2024-01-09T03:53:52.326Z,3.17
2024-01-09T03:56:20.613Z,3.37
2024-01-09T03:58:50.249Z,2.77
2024-01-09T04:01:18.519Z,3.40
2024-01-09T04:03:47.489Z,3.17
2024-01-09T04:06:15.888Z,3.50
2024-01-09T04:08:44.319Z,3.50
2024-01-09T04:11:12.621Z,3.37
2024-01-09T04:13:41.704Z,3.07
2024-01-09T04:16:13.453Z,3.43
2024-01-09T04:18:41.742Z,3.10
2024-01-09T04:21:09.973Z,3.37
2024-01-09T04:23:38.265Z,3.33
2024-01-09T04:26:06.549Z,3.53
2024-01-09T04:28:34.785Z,3.20
2024-01-09T04:31:03.104Z,3.00
2024-01-09T04:33:32.807Z,3.90
2024-01-09T04:36:01.136Z,3.10
2024-01-09T04:38:29.409Z,3.50
2024-01-09T04:40:57.648Z,3.40
2024-01-09T04:43:25.877Z,3.70
2024-01-09T04:45:54.215Z,3.60
2024-01-09T04:48:22.647Z,3.67
2024-01-09T04:50:52.366Z,3.67
2024-01-09T04:53:20.661Z,3.80
2024-01-09T04:55:48.968Z,3.70
2024-01-09T04:58:17.278Z,3.57
2024-01-09T05:00:45.707Z,3.67
2024-01-09T05:03:14.319Z,3.67
2024-01-09T05:05:42.710Z,3.83
2024-01-09T05:08:12.312Z,3.33
2024-01-09T05:10:40.598Z,3.20
2024-01-09T05:13:08.881Z,3.70
2024-01-09T05:15:37.169Z,4.03
2024-01-09T05:18:05.853Z,4.00
2024-01-09T05:20:34.196Z,3.92
2024-01-09T05:23:02.479Z,3.60
2024-01-09T05:25:32.086Z,3.50
2024-01-09T05:28:00.353Z,3.93
2024-01-09T05:30:28.728Z,3.50
2024-01-09T05:32:57.080Z,3.47
2024-01-09T05:35:25.454Z,3.60
2024-01-09T05:37:58.689Z,3.60
2024-01-09T05:40:34.993Z,3.40
2024-01-09T05:43:03.215Z,3.63
2024-01-09T05:45:31.450Z,3.23
2024-01-09T05:47:59.759Z,3.93
2024-01-09T05:50:28.079Z,3.47
2024-01-09T05:52:56.360Z,3.87
2024-01-09T05:55:24.574Z,3.50
2024-01-09T05:57:54.117Z,3.53
2024-01-09T06:00:22.350Z,3.37
2024-01-09T06:02:50.707Z,3.40
2024-01-09T06:05:19.034Z,3.70
2024-01-09T06:07:47.342Z,3.13
2024-01-09T06:10:15.641Z,3.53
2024-01-09T06:12:43.885Z,3.20
2024-01-09T06:15:13.622Z,3.43
2024-01-09T06:17:42.032Z,3.57
2024-01-09T06:20:10.908Z,3.40
2024-01-09T06:22:39.184Z,3.43
2024-01-09T06:25:07.515Z,3.40
2024-01-09T06:27:35.752Z,3.70
2024-01-09T06:30:04.231Z,3.80
2024-01-09T06:32:33.975Z,3.73
2024-01-09T06:35:02.222Z,3.10
2024-01-09T06:37:30.473Z,3.13
2024-01-09T06:39:57.682Z,3.37
2024-01-09T06:42:25.877Z,3.60
2024-01-09T06:44:54.151Z,3.30
2024-01-09T06:47:22.923Z,3.60
2024-01-09T06:49:55.076Z,3.03
2024-01-09T06:52:23.594Z,3.37
2024-01-09T06:54:51.804Z,3.53
2024-01-09T06:57:20.023Z,3.40
2024-01-09T06:59:48.314Z,3.63
2024-01-09T07:02:16.726Z,3.67
2024-01-09T07:04:45.076Z,3.73
2024-01-09T07:07:14.774Z,4.03
2024-01-09T07:09:42.996Z,3.73
2024-01-09T07:12:11.374Z,3.80
2024-01-09T07:14:39.725Z,3.20
2024-01-09T07:17:09.033Z,3.27
2024-01-09T07:19:37.310Z,3.57
2024-01-09T07:22:05.773Z,3.50
2024-01-09T07:24:35.345Z,4.43
2024-01-09T07:27:03.552Z,5.30
2024-01-09T07:29:31.829Z,3.70
2024-01-09T07:32:00.179Z,3.63
2024-01-09T07:34:28.401Z,3.33
2024-01-09T07:36:56.664Z,3.50
2024-01-09T07:39:25.019Z,3.70
2024-01-09T07:41:54.664Z,3.70
2024-01-09T07:44:22.896Z,4.00
2024-01-09T07:46:51.333Z,3.80
2024-01-09T07:49:19.661Z,3.40
2024-01-09T07:51:48.320Z,3.80
2024-01-09T07:54:16.600Z,3.93
2024-01-09T07:56:44.987Z,3.77
2024-01-09T07:59:14.602Z,3.77
2024-01-09T08:01:43.388Z,4.20
2024-01-09T08:04:12.103Z,3.40
2024-01-09T08:06:40.514Z,3.70
2024-01-09T08:09:08.912Z,3.17
2024-01-09T08:11:37.218Z,4.30
2024-01-09T08:14:05.451Z,3.87
2024-01-09T08:16:35.114Z,3.50
2024-01-09T08:19:05.782Z,3.57
2024-01-09T08:21:36.150Z,4.03
2024-01-09T08:24:05.424Z,3.87
2024-01-09T08:26:33.802Z,4.03
2024-01-09T08:29:03.942Z,4.43
2024-01-09T08:31:32.240Z,3.60
2024-01-09T08:34:01.985Z,3.67
2024-01-09T08:36:30.287Z,3.77
2024-01-09T08:38:58.565Z,4.40
2024-01-09T08:41:26.880Z,3.90
2024-01-09T08:43:55.156Z,3.87
2024-01-09T08:46:23.353Z,3.67
2024-01-09T08:48:51.607Z,3.47
2024-01-09T08:51:23.762Z,3.67
2024-01-09T08:53:54.845Z,3.67
2024-01-09T08:56:23.285Z,3.60
2024-01-09T08:58:51.697Z,3.30
2024-01-09T09:01:21.793Z,3.63
2024-01-09T09:03:50.227Z,3.70
2024-01-09T09:06:18.902Z,3.63
2024-01-09T09:08:48.649Z,3.87
2024-01-09T09:11:17.995Z,3.37
2024-01-09T09:13:46.469Z,3.07
2024-01-09T09:16:15.181Z,3.37
2024-01-09T09:18:43.757Z,3.80
2024-01-09T09:21:12.078Z,3.40
2024-01-09T09:23:40.883Z,3.70
2024-01-09T09:26:10.573Z,3.30
2024-01-09T09:28:45.815Z,3.40
2024-01-09T09:31:24.217Z,3.27
2024-01-09T09:33:52.530Z,3.00
2024-01-09T09:36:20.797Z,3.20
2024-01-09T09:38:49.140Z,3.40
2024-01-09T09:41:18.970Z,3.50
2024-01-09T09:43:51.056Z,3.50
2024-01-09T09:46:22.189Z,3.30
2024-01-09T09:48:51.080Z,3.20
2024-01-09T09:51:20.033Z,3.43
2024-01-09T09:53:49.137Z,3.80
2024-01-09T09:56:19.069Z,3.03
2024-01-09T09:58:47.361Z,3.20
2024-01-09T10:01:16.528Z,3.10
2024-01-09T10:03:50.149Z,3.33
2024-01-09T10:06:20.394Z,3.27
2024-01-09T10:08:50.265Z,3.20
2024-01-09T10:11:20.096Z,3.53
2024-01-09T10:13:48.358Z,3.57
2024-01-09T10:16:16.567Z,2.90
2024-01-09T10:18:44.896Z,3.30
2024-01-09T10:21:13.502Z,3.20
2024-01-09T10:23:41.907Z,3.10
2024-01-09T10:26:12.492Z,2.97
2024-01-09T10:28:42.493Z,3.23
2024-01-09T10:31:11.218Z,3.27
2024-01-09T10:33:41.979Z,3.20
2024-01-09T10:36:10.788Z,3.13
2024-01-09T10:38:41.191Z,3.50
2024-01-09T10:41:17.906Z,3.17
2024-01-09T10:43:47.613Z,3.30
2024-01-09T10:46:16.815Z,3.17
2024-01-09T10:48:45.308Z,3.03
2024-01-09T10:51:14.057Z,2.80
2024-01-09T10:53:42.670Z,3.03
2024-01-09T10:56:11.877Z,2.73
2024-01-09T10:58:40.906Z,3.20
2024-01-09T11:01:11.134Z,3.20
2024-01-09T11:03:39.535Z,2.60
2024-01-09T11:06:08.666Z,3.13
2024-01-09T11:08:37.074Z,2.50
2024-01-09T11:11:06.072Z,2.97
2024-01-09T11:13:35.466Z,2.63
2024-01-09T11:16:04.755Z,3.23
2024-01-09T11:18:35.117Z,2.80
2024-01-09T11:21:03.779Z,2.47
2024-01-09T11:23:54.111Z,3.07
2024-01-09T11:26:22.711Z,2.60
2024-01-09T11:28:51.004Z,2.57
2024-01-09T11:31:21.617Z,2.90
2024-01-09T11:33:52.552Z,2.87
2024-01-09T11:36:23.767Z,2.53
2024-01-09T11:38:53.872Z,2.97
2024-01-09T11:41:24.279Z,2.53
2024-01-09T11:44:03.111Z,2.67
2024-01-09T11:46:33.372Z,2.63
2024-01-09T11:49:03.204Z,2.40
2024-01-09T11:51:31.815Z,2.20
2024-01-09T11:54:00.888Z,2.40
2024-01-09T11:56:29.945Z,2.60
2024-01-09T11:58:58.772Z,2.40
2024-01-09T12:01:27.592Z,2.60
2024-01-09T12:03:56.424Z,2.40
2024-01-09T12:06:26.789Z,2.63
2024-01-09T12:08:55.558Z,2.37
2024-01-09T12:11:23.914Z,2.50
2024-01-09T12:14:00.982Z,2.47
2024-01-09T12:16:30.690Z,2.83
2024-01-09T12:18:59.637Z,2.73
2024-01-09T12:21:31.455Z,2.40
2024-01-09T12:24:19.015Z,2.33
2024-01-09T12:26:49.880Z,2.50
2024-01-09T12:29:18.231Z,2.10
2024-01-09T12:31:46.715Z,2.60
2024-01-09T12:34:15.272Z,2.40
2024-01-09T12:36:44.995Z,2.07
2024-01-09T12:39:14.305Z,2.40
2024-01-09T12:41:44.860Z,2.10
2024-01-09T12:44:14.421Z,2.53
2024-01-09T12:46:45.244Z,1.93
2024-01-09T12:49:14.596Z,2.10
2024-01-09T12:51:44.816Z,2.30
2024-01-09T12:54:16.821Z,2.27
2024-01-09T12:56:45.645Z,2.27
2024-01-09T12:59:17.920Z,2.23
2024-01-09T13:01:46.362Z,1.87
2024-01-09T13:04:14.767Z,2.20
2024-01-09T13:06:44.386Z,2.00
2024-01-09T13:09:14.341Z,2.00
2024-01-09T13:11:44.181Z,2.30
2024-01-09T13:14:12.956Z,2.27
2024-01-09T13:16:41.440Z,2.40
2024-01-09T13:19:11.255Z,2.47
2024-01-09T13:23:44.455Z,2.23
2024-01-09T13:24:29.501Z,2.10
2024-01-09T13:26:57.788Z,2.33
2024-01-09T13:30:46.331Z,2.27
2024-01-09T13:32:16.435Z,1.90
2024-01-09T13:34:44.820Z,2.10
2024-01-09T13:37:13.455Z,2.47
2024-01-09T13:39:43.023Z,2.77
2024-01-09T13:42:11.926Z,2.40
2024-01-09T13:44:40.720Z,2.27
2024-01-09T13:47:09.036Z,2.70
2024-01-09T13:51:37.524Z,2.20
2024-01-09T13:52:26.429Z,2.40
2024-01-09T13:54:56.115Z,2.27
2024-01-09T13:57:24.784Z,2.57
2024-01-09T13:59:53.090Z,2.10
2024-01-09T14:02:21.309Z,2.10
2024-01-09T14:04:50.409Z,2.50
2024-01-09T14:07:19.245Z,2.30
2024-01-09T14:09:47.446Z,2.30
2024-01-09T14:12:17.079Z,2.23
2024-01-09T14:14:45.390Z,2.10
2024-01-09T14:17:13.908Z,2.50
2024-01-09T14:19:42.644Z,2.20
2024-01-09T14:22:10.927Z,2.13
2024-01-09T14:24:39.136Z,2.17
2024-01-09T14:27:07.490Z,2.07
2024-01-09T14:29:37.153Z,2.30
2024-01-09T14:32:05.551Z,2.60
2024-01-09T14:34:33.975Z,2.10
2024-01-09T14:37:03.049Z,2.23
2024-01-09T14:39:31.239Z,2.60
2024-01-09T14:41:59.512Z,2.20
2024-01-09T14:44:27.811Z,2.60
2024-01-09T14:46:59.974Z,2.73
2024-01-09T14:49:28.278Z,2.37
2024-01-09T14:51:56.578Z,2.20
2024-01-09T14:54:26.597Z,2.13
2024-01-09T14:56:55.893Z,2.23
2024-01-09T14:59:24.323Z,2.60
2024-01-09T15:01:53.259Z,2.93
2024-01-09T15:04:23.170Z,2.70
2024-01-09T15:06:55.159Z,2.90
2024-01-09T15:09:25.981Z,2.80
2024-01-09T15:11:54.196Z,2.50
2024-01-09T15:14:22.625Z,2.30
2024-01-09T15:16:50.963Z,2.47
2024-01-09T15:19:19.320Z,2.53
2024-01-09T15:21:48.920Z,2.70
2024-01-09T15:24:17.129Z,2.90
2024-01-09T15:26:45.391Z,3.53
2024-01-09T15:29:13.694Z,3.60
2024-01-09T15:31:42.033Z,2.53
2024-01-09T15:34:10.340Z,2.60
2024-01-09T15:36:41.461Z,3.07
2024-01-09T15:39:11.654Z,2.30
2024-01-09T15:41:40.114Z,2.57
2024-01-09T15:44:10.308Z,3.50
2024-01-09T15:46:38.746Z,3.83
2024-01-09T15:49:07.075Z,5.13
2024-01-09T15:51:35.369Z,4.60
2024-01-09T15:54:04.267Z,4.00
2024-01-09T15:56:33.835Z,3.50
2024-01-09T15:59:02.455Z,2.47
2024-01-09T16:01:30.922Z,3.03
2024-01-09T16:03:59.194Z,2.23
2024-01-09T16:06:27.541Z,2.23
2024-01-09T16:08:55.751Z,2.30
2024-01-09T16:11:24.844Z,2.20
2024-01-09T16:13:54.472Z,2.90
2024-01-09T16:16:23.259Z,2.80
2024-01-09T16:18:51.628Z,2.43
2024-01-09T16:21:20.203Z,2.30
2024-01-09T16:23:49.222Z,2.60
2024-01-09T16:26:17.538Z,2.30
2024-01-09T16:28:45.834Z,2.33
2024-01-09T16:31:16.282Z,2.57
2024-01-09T16:33:45.410Z,2.40
2024-01-09T16:36:14.049Z,2.40
2024-01-09T16:38:42.601Z,2.40
2024-01-09T16:41:11.206Z,2.77
2024-01-09T16:43:39.551Z,2.40
2024-01-09T16:46:08.878Z,2.20
2024-01-09T16:48:44.805Z,2.70
2024-01-09T16:51:13.685Z,2.70
2024-01-09T16:53:42.000Z,2.80
2024-01-09T16:56:10.508Z,2.93
2024-01-09T16:58:38.860Z,3.00
2024-01-09T17:01:07.157Z,3.20
2024-01-09T17:03:35.439Z,2.70
2024-01-09T17:06:05.417Z,3.87
2024-01-09T17:08:33.749Z,2.97
2024-01-09T17:11:02.061Z,3.03
2024-01-09T17:13:30.356Z,2.97
2024-01-09T17:15:58.816Z,2.80
2024-01-09T17:18:27.057Z,3.10
2024-01-09T17:20:55.291Z,2.90
2024-01-09T17:23:24.853Z,3.10
2024-01-09T17:25:53.213Z,2.93
2024-01-09T17:28:21.489Z,2.77
2024-01-09T17:30:50.104Z,3.40
2024-01-09T17:33:18.458Z,3.63
2024-01-09T17:35:46.817Z,3.60
2024-01-09T17:38:15.159Z,3.20
2024-01-09T17:40:44.792Z,3.50
2024-01-09T17:43:13.050Z,3.53
2024-01-09T17:45:41.352Z,2.87
2024-01-09T17:48:10.368Z,2.70
2024-01-09T17:50:39.996Z,3.00
2024-01-09T17:53:08.528Z,3.20
2024-01-09T17:55:37.262Z,2.90
2024-01-09T17:58:07.114Z,2.93
2024-01-09T18:00:35.968Z,2.90
2024-01-09T18:03:05.776Z,2.87
2024-01-09T18:05:34.080Z,3.00
2024-01-09T18:08:05.210Z,3.07
2024-01-09T18:10:33.644Z,3.30
2024-01-09T18:13:01.937Z,2.73
2024-01-09T18:15:31.538Z,3.10
2024-01-09T18:17:59.856Z,2.70
2024-01-09T18:20:28.536Z,3.17
2024-01-09T18:22:56.854Z,3.07
2024-01-09T18:25:25.094Z,2.40
2024-01-09T18:27:53.263Z,3.37
2024-01-09T18:30:21.986Z,3.27
2024-01-09T18:32:51.611Z,2.80
2024-01-09T18:35:19.956Z,3.17
2024-01-09T18:37:50.332Z,3.00
2024-01-09T18:40:18.810Z,3.20
2024-01-09T18:42:47.034Z,2.93
2024-01-09T18:45:15.261Z,3.40
2024-01-09T18:47:43.466Z,3.37
2024-01-09T18:50:13.312Z,2.93
2024-01-09T18:52:41.745Z,3.10
2024-01-09T18:55:10.276Z,2.70
2024-01-09T18:57:38.565Z,3.17
2024-01-09T19:00:08.934Z,3.43
2024-01-09T19:02:37.306Z,3.27
2024-01-09T19:05:08.219Z,3.00
2024-01-09T19:07:39.352Z,3.13
2024-01-09T19:10:12.693Z,3.43
2024-01-09T19:12:41.043Z,2.87
2024-01-09T19:15:10.570Z,2.50
2024-01-09T19:17:39.221Z,3.10
2024-01-09T19:20:08.526Z,2.70
2024-01-09T19:22:38.280Z,3.40
2024-01-09T19:25:07.155Z,3.20
2024-01-09T19:27:35.362Z,2.77
2024-01-09T19:30:03.615Z,3.20
2024-01-09T19:32:32.048Z,2.90
2024-01-09T19:35:01.126Z,3.17
2024-01-09T19:37:29.570Z,3.17
2024-01-09T19:39:59.178Z,3.37
2024-01-09T19:42:27.974Z,3.90
2024-01-09T19:44:59.074Z,3.10
2024-01-09T19:47:27.404Z,3.30
2024-01-09T19:49:55.707Z,2.80
2024-01-09T19:52:24.222Z,3.00
2024-01-09T19:54:53.511Z,2.87
2024-01-09T19:57:23.119Z,3.30
2024-01-09T19:59:51.346Z,3.33
2024-01-09T20:02:19.698Z,3.07
2024-01-09T20:04:49.086Z,3.27
2024-01-09T20:07:17.430Z,3.37
2024-01-09T20:09:46.031Z,3.43
2024-01-09T20:12:15.984Z,4.47
2024-01-09T20:14:45.994Z,3.20
2024-01-09T20:17:14.334Z,3.70
2024-01-09T20:19:43.867Z,3.30
2024-01-09T20:22:13.027Z,2.63
2024-01-09T20:24:41.613Z,2.97
2024-01-09T20:27:09.823Z,2.57
2024-01-09T20:29:38.019Z,2.70
2024-01-09T20:32:08.256Z,2.20
2024-01-09T20:34:36.542Z,2.83
2024-01-09T20:37:04.793Z,2.60
2024-01-09T20:39:33.155Z,2.43
2024-01-09T20:42:02.511Z,2.40
2024-01-09T20:44:30.748Z,2.40
2024-01-09T20:46:59.046Z,2.20
2024-01-09T20:49:28.719Z,2.80
2024-01-09T20:51:56.985Z,2.80
2024-01-09T20:54:25.448Z,2.93
2024-01-09T20:56:53.714Z,3.10
2024-01-09T20:59:21.983Z,2.43
2024-01-09T21:01:50.285Z,2.83
2024-01-09T21:04:18.548Z,3.13
2024-01-09T21:06:48.941Z,4.00
2024-01-09T21:09:17.300Z,3.60
2024-01-09T21:11:45.870Z,3.43
2024-01-09T21:14:14.497Z,3.10
2024-01-09T21:16:42.895Z,2.83
2024-01-09T21:19:11.763Z,2.97
2024-01-09T21:21:40.159Z,2.70
2024-01-09T21:24:10.077Z,2.33
2024-01-09T21:26:38.272Z,2.60
2024-01-09T21:29:06.548Z,2.50
2024-01-09T21:31:34.895Z,2.47
2024-01-09T21:34:03.201Z,2.50
2024-01-09T21:36:31.520Z,2.57
2024-01-09T21:38:59.740Z,2.33
2024-01-09T21:41:29.390Z,1.90
2024-01-09T21:43:57.702Z,2.80
2024-01-09T21:46:27.428Z,2.73
2024-01-09T21:48:55.822Z,2.50
2024-01-09T21:51:26.556Z,2.50
2024-01-09T21:53:54.922Z,5.13
2024-01-09T21:56:23.144Z,2.87
2024-01-09T21:58:52.824Z,2.80
2024-01-09T22:01:21.133Z,2.57
2024-01-09T22:03:49.463Z,3.30
2024-01-09T22:06:17.778Z,3.03
2024-01-09T22:08:46.042Z,2.80
2024-01-09T22:11:14.314Z,2.87
2024-01-09T22:13:42.628Z,2.70
2024-01-09T22:16:12.857Z,2.73
2024-01-09T22:18:41.262Z,2.53
2024-01-09T22:21:09.626Z,3.27
2024-01-09T22:23:39.982Z,3.13
2024-01-09T22:26:08.270Z,3.60
2024-01-09T22:28:36.634Z,2.87
2024-01-09T22:31:05.036Z,2.83
2024-01-09T22:33:34.855Z,3.43
2024-01-09T22:36:03.141Z,3.20
2024-01-09T22:38:31.349Z,3.20
2024-01-09T22:40:59.571Z,3.80
2024-01-09T22:43:27.803Z,3.87
2024-01-09T22:45:56.244Z,2.90
2024-01-09T22:48:24.414Z,2.40
2024-01-09T22:50:54.045Z,2.20
2024-01-09T22:53:23.993Z,2.33
2024-01-09T22:55:52.293Z,2.33
2024-01-09T22:58:20.577Z,2.37
2024-01-09T23:00:49.143Z,2.57
2024-01-09T23:03:17.585Z,2.83
2024-01-09T23:05:46.018Z,3.03
2024-01-09T23:08:15.801Z,2.50
2024-01-09T23:10:44.223Z,2.40
2024-01-09T23:13:12.439Z,2.60
2024-01-09T23:15:41.627Z,2.60
2024-01-09T23:18:10.246Z,2.90
2024-01-09T23:20:38.550Z,2.13
2024-01-09T23:23:07.144Z,2.50
2024-01-09T23:25:36.757Z,2.50
2024-01-09T23:28:05.041Z,2.43
2024-01-09T23:30:33.266Z,2.30
2024-01-09T23:33:01.708Z,2.40
2024-01-09T23:35:30.094Z,2.57
2024-01-09T23:37:58.420Z,2.50
2024-01-09T23:40:28.470Z,2.10
2024-01-09T23:42:58.012Z,2.40
2024-01-09T23:45:26.213Z,2.53
2024-01-09T23:47:54.556Z,2.67
2024-01-09T23:50:22.981Z,2.60
2024-01-09T23:52:51.290Z,2.70
2024-01-09T23:55:19.520Z,2.80
2024-01-09T23:57:47.744Z,2.67
